D/T METAR WX W/DIR W/SPE G/SPE TEMP DEWP
25/02/20 15:20 EGPC 251520Z 26005KT 9999 FEW008 SCT032 05/00 Q0987 W (260°) 5.8mph 5°C 0°C
25/02/20 14:50 EGPC 251450Z 26007KT 9999 FEW008 05/00 Q0987 W (260°) 8.1mph 5°C 0°C
25/02/20 14:20 EGPC 251420Z 27005KT 9999 SCT020 05/01 Q0988 W (270°) 5.8mph 5°C 1°C
25/02/20 13:50 EGPC 251350Z 25004KT 9999 SCT020 05/01 Q0988 WSW (250°) 4.6mph 5°C 1°C
25/02/20 13:20 EGPC 251320Z 25005KT 9999 SCT020 05/01 Q0988 WSW (250°) 5.8mph 5°C 1°C
25/02/20 12:50 EGPC 251250Z 25006KT 9999 SCT016 04/01 Q0988 WSW (250°) 6.9mph 4°C 1°C
25/02/20 12:20 EGPC 251220Z 25005KT 9999 SCT016 04/01 Q0989 WSW (250°) 5.8mph 4°C 1°C
25/02/20 11:50 EGPC 251150Z 23005KT 190V260 9999 FEW008 SCT016 04/01 Q0989 SW (230°) 5.8mph 4°C 1°C
25/02/20 11:20 EGPC 251120Z 22004KT 190V250 9999 FEW008 SCT016 04/01 Q0989 SW (220°) 4.6mph 4°C 1°C
25/02/20 10:50 EGPC 251050Z VRB03KT 9999 VCSH FEW008 SCT016 03/02 Q0989 VCSH N (0°) 3.5mph 3°C 2°C
25/02/20 10:20 EGPC 251020Z 22003KT 9999 VCSH FEW008 SCT016 02/01 Q0989 VCSH SW (220°) 3.5mph 2°C 1°C
25/02/20 09:50 EGPC 250950Z 26002KT 9999 VCSH SCT010 BKN018 02/01 Q0990 VCSH W (260°) 2.3mph 2°C 1°C
25/02/20 09:20 EGPC 250920Z VRB01KT 9999 VCSH SCT010 BKN018 02/01 Q0990 VCSH N (0°) 1.2mph 2°C 1°C
25/02/20 08:50 EGPC 250850Z 25002KT 9999 VCSH SCT010 BKN018 02/01 Q0990 VCSH WSW (250°) 2.3mph 2°C 1°C
25/02/20 08:20 EGPC 250820Z 29001KT 9999 VCSH BKN010 01/00 Q0990 VCSH WNW (290°) 1.2mph 1°C 0°C
25/02/20 07:50 EGPC 250750Z 27002KT 9999 BKN010 01/00 Q0991 W (270°) 2.3mph 1°C 0°C
25/02/20 07:20 EGPC 250720Z 25002KT 9999 BKN010 01/00 Q0991 WSW (250°) 2.3mph 1°C 0°C
25/02/20 06:50 EGPC 250650Z 27002KT 9999 BKN010 00/00 Q0991 W (270°) 2.3mph 0°C 0°C
25/02/20 06:20 EGPC 250620Z AUTO 30001KT 9999 -RA FEW009/// SCT013/// BKN018/// 00/M00 Q0991 -RA WNW (300°) 1.2mph 0°C 0°C
25/02/20 05:50 EGPC 250550Z AUTO 28001KT 9999 -RA BKN018/// 00/00 Q0992 -RA W (280°) 1.2mph 0°C 0°C
25/02/20 05:20 EGPC 250520Z AUTO 28002KT 9999 -RA SCT009/// BKN015/// BKN023/// 01/00 Q0992 -RA W (280°) 2.3mph 1°C 0°C
25/02/20 04:50 EGPC 250450Z AUTO 29002KT 9999 -RA SCT009/// BKN016/// BKN049/// 01/00 Q0992 -RA WNW (290°) 2.3mph 1°C 0°C
25/02/20 04:20 EGPC 250420Z AUTO 28002KT 9999 -RA SCT007/// BKN011/// BKN030/// 01/00 Q0993 -RA W (280°) 2.3mph 1°C 0°C
25/02/20 03:50 EGPC 250350Z AUTO 28001KT 9999 -RA OVC007/// 01/00 Q0993 -RA W (280°) 1.2mph 1°C 0°C
25/02/20 03:20 EGPC 250320Z AUTO 28001KT 9999 -RA OVC008/// 01/00 Q0993 -RA W (280°) 1.2mph 1°C 0°C
25/02/20 02:50 EGPC 250250Z AUTO 28003KT 9999 -RA OVC009/// 01/00 Q0994 -RA W (280°) 3.5mph 1°C 0°C
25/02/20 02:20 EGPC 250220Z AUTO 27003KT 9999 -RA BKN011/// OVC015/// 01/00 Q0994 -RA W (270°) 3.5mph 1°C 0°C
25/02/20 01:50 EGPC 250150Z AUTO 27003KT 9999 -RA OVC013/// 01/00 Q0994 -RA W (270°) 3.5mph 1°C 0°C
25/02/20 01:20 EGPC 250120Z AUTO 27003KT 9999 -RA BKN021/// OVC039/// 01/00 Q0994 -RA W (270°) 3.5mph 1°C 0°C
25/02/20 00:50 EGPC 250050Z AUTO 27003KT 9999 OVC035/// 01/00 Q0995 W (270°) 3.5mph 1°C 0°C
25/02/20 00:20 EGPC 250020Z AUTO 27003KT 9999 BKN035/// 01/00 Q0995 W (270°) 3.5mph 1°C 0°C
24/02/20 23:50 EGPC 242350Z AUTO 27003KT 9999 SCT016/// BKN045/// 01/00 Q0995 W (270°) 3.5mph 1°C 0°C
24/02/20 23:20 EGPC 242320Z AUTO 27003KT 9999 FEW027/// SCT033/// BKN044/// 01/00 Q0995 W (270°) 3.5mph 1°C 0°C
24/02/20 22:50 EGPC 242250Z AUTO 27004KT 9999 -RA SCT039/// 01/00 Q0995 -RA W (270°) 4.6mph 1°C 0°C
24/02/20 22:20 EGPC 242220Z AUTO 28005KT 9999 FEW024/// SCT030/// BKN043/// 01/00 Q0995 W (280°) 5.8mph 1°C 0°C
24/02/20 21:50 EGPC 242150Z AUTO VRB02KT 9999 -RA SCT005/// SCT008/// BKN029/// 02/01 Q0996 RERA -RA N (0°) 2.3mph 2°C 1°C
24/02/20 21:20 EGPC 242120Z AUTO VRB03KT 9999 -RA SCT011/// BKN017/// BKN025/// 02/01 Q0996 -RA N (0°) 3.5mph 2°C 1°C
24/02/20 20:50 EGPC 242050Z AUTO 15005KT 9999 -RA SCT020/// BKN025/// BKN036/// 03/01 Q0996 -RA SSE (150°) 5.8mph 3°C 1°C
24/02/20 20:20 EGPC 242020Z AUTO 06005KT 9999 FEW027/// BKN034/// BKN046/// 03/00 Q0996 ENE (60°) 5.8mph 3°C 0°C
24/02/20 19:50 EGPC 241950Z 13008KT 090V160 9999 VCSH FEW010 BKN029 04/00 Q0996 VCSH SE (130°) 9.2mph 4°C 0°C
24/02/20 19:20 EGPC 241920Z VRB02KT 9999 VCSH FEW010 BKN029 04/00 Q0996 VCSH N (0°) 2.3mph 4°C 0°C
24/02/20 18:50 EGPC 241850Z 14007KT 070V180 9999 VCSH FEW010 BKN029 04/M00 Q0996 VCSH SE (140°) 8.1mph 4°C 0°C
24/02/20 18:20 EGPC 241820Z 09013KT 9999 VCSH FEW010 BKN029 04/M00 Q0996 VCSH E (90°) 15.0mph 4°C 0°C
24/02/20 17:50 EGPC 241750Z 09013KT 9999 VCSH FEW010 BKN029 04/M02 Q0996 VCSH E (90°) 15.0mph 4°C -2°C
24/02/20 17:20 EGPC 241720Z 08013KT 9999 VCSH FEW010 BKN029 04/M01 Q0997 VCSH E (80°) 15.0mph 4°C -1°C
24/02/20 16:50 EGPC 241650Z 12008KT 9999 VCSH SCT005 BKN026 03/M00 Q0997 VCSH ESE (120°) 9.2mph 3°C 0°C
24/02/20 16:20 EGPC 241620Z 15009KT 9999 -SHRAGS SCT013 BKN030 04/01 Q0997 -SHRA -SHGS SSE (150°) 10.4mph 4°C 1°C
24/02/20 15:50 EGPC 241550Z 12009KT 9999 BKN027 04/00 Q0997 ESE (120°) 10.4mph 4°C 0°C